Flight Track Log - Related Links

Times and Time Zones

All times are in EDT time to prevent confusion due to time zone crossing. See the N529LB flight status page for this flight to view local times or setup timezone preferences in your user account.

Time Position Orientation Groundspeed Altitude Reporting Facility
EDT Latitude Longitude Course Direction KTS MPH feet Rate Location/Type
Wed 08:04:06 AM 40.6333 -74.7500 201° Southwest 140 161 1,900  Level New York TRACON
Wed 08:05:00 AM 40.6000 -74.7667 201° Southwest 148 170 2,500 750 Climbing New York TRACON
Wed 08:06:06 AM 40.6167 -74.7167 66° East 126 145 3,400 800 Climbing New York TRACON
Wed 08:07:00 AM 40.6333 -74.6833 57° Northeast 130 150 4,100 350 Climbing New York TRACON
Wed 08:08:06 AM 40.6500 -74.6333 66° East 164 189 4,100  Level New York TRACON
Wed 08:09:00 AM 40.6833 -74.5833 49° Northeast 174 200 4,100  Level New York TRACON
Wed 08:10:00 AM 40.7167 -74.5333 49° Northeast 176 203 4,100  Level New York TRACON
Wed 08:11:06 AM 40.7333 -74.4667 72° East 173 199 4,100 250 Level New York TRACON
Wed 08:12:00 AM 40.7667 -74.4333 37° Northeast 156 180 4,600 800 Climbing New York TRACON
Wed 08:13:06 AM 40.7833 -74.3833 66° East 131 151 5,700 750 Climbing New York TRACON
Wed 08:14:00 AM 40.8000 -74.3500 57° Northeast 144 166 6,100 200 Climbing New York TRACON
Wed 08:15:06 AM 40.8333 -74.2833 57° Northeast 177 204 6,100  Level New York TRACON
Wed 08:16:06 AM 40.8667 -74.2500 37° Northeast 168 193 6,100  Level New York TRACON
Wed 08:17:00 AM 40.9000 -74.2333 21° North 171 197 6,100  Level New York TRACON
Wed 08:18:00 AM 40.9500 -74.2167 14° North 169 194 6,100  Level New York TRACON
Wed 08:19:06 AM 41.0000 -74.2000 14° North 171 197 6,100  Level New York TRACON
Wed 08:20:00 AM 41.0333 -74.1833 21° North 169 194 6,100  Level New York TRACON
Wed 08:21:06 AM 41.0833 -74.1667 14° North 172 198 6,100  Level New York TRACON
Wed 08:22:06 AM 41.1333 -74.1500 14° North 171 197 6,100 500 Level New York TRACON
Wed 08:23:06 AM 41.1667 -74.1167 37° Northeast 157 181 7,100 800 Climbing New York TRACON
Wed 08:24:06 AM 41.1833 -74.0500 72° East 161 185 7,700 700 Climbing New York TRACON
Wed 08:25:06 AM 41.1833 -74.0000 90° East 165 190 8,500 789 Climbing New York TRACON
Wed 08:26:00 AM 41.2000 -73.9500 66° East 165 190 9,200 750 Climbing New York TRACON
Wed 08:27:06 AM 41.2167 -73.8833 72° East 167 192 10,000 710 Climbing New York TRACON
Wed 08:29:06 AM 41.2333 -73.7500 81° East 173 199 11,400 733 Climbing New York TRACON
Wed 08:30:06 AM 41.2500 -73.7000 66° East 177 204 12,200 548 Climbing New York TRACON
Wed 08:32:23 AM 41.2944 -73.5672 66° East 179 206 13,200 548 Climbing Boston Center
Wed 08:33:23 AM 41.3261 -73.5208 48° Northeast 169 194 14,000 750 Climbing Boston Center
Wed 08:34:23 AM 41.3619 -73.4883 34° Northeast 161 185 14,700 600 Climbing Boston Center
Wed 08:35:23 AM 41.3908 -73.4997 344° North 130 150 15,200 600 Climbing Boston Center
Wed 08:36:23 AM 41.4325 -73.5089 351° North 125 144 15,900 650 Climbing Boston Center
Wed 08:37:23 AM 41.4636 -73.5147 352° North 125 144 16,500 550 Climbing Boston Center
Wed 08:38:23 AM 41.5117 -73.5239 352° North 125 144 17,000 250 Climbing Boston Center
Wed 08:39:23 AM 41.5572 -73.5386 346° North 138 159 17,000  Level Boston Center
Wed 08:40:23 AM 41.6050 -73.5478 352° North 153 176 17,000  Level Boston Center
Wed 08:41:23 AM 41.6508 -73.5597 349° North 164 189 17,000  Level Boston Center
Wed 08:42:23 AM 41.6986 -73.5689 352° North 164 189 17,000  Level Boston Center
Wed 08:43:23 AM 41.7444 -73.5781 352° North 164 189 17,000  Level Boston Center
Wed 08:44:23 AM 41.7900 -73.5928 346° North 164 189 17,000  Level Boston Center
Wed 08:45:23 AM 41.8358 -73.6019 352° North 164 189 17,000  Level Boston Center
Wed 08:46:23 AM 41.8794 -73.6111 351° North 164 189 17,000  Level Boston Center
Wed 08:47:23 AM 41.9275 -73.6233 349° North 164 189 17,000  Level Boston Center
Wed 08:48:23 AM 41.9731 -73.6325 351° North 164 189 17,000  Level Boston Center
Wed 08:49:23 AM 42.0208 -73.6444 349° North 164 189 17,000  Level Boston Center
Wed 08:50:23 AM 42.0667 -73.6567 349° North 164 189 17,000  Level Boston Center
Wed 08:51:23 AM 42.1144 -73.6631 354° North 164 189 17,000  Level Boston Center
Wed 08:52:23 AM 42.1603 -73.6753 349° North 164 189 17,000  Level Boston Center
Wed 08:53:23 AM 42.2058 -73.6872 349° North 164 189 17,000  Level Boston Center
Wed 08:54:23 AM 42.2517 -73.6967 351° North 164 189 17,000  Level Boston Center
Wed 08:55:35 AM 42.3058 -73.7089 351° North 164 189 17,000  Level Boston Center
Wed 08:56:35 AM 42.3494 -73.7156 354° North 164 189 17,000  Level Boston Center
Wed 08:57:35 AM 42.3931 -73.7275 349° North 164 189 17,000  Level Boston Center
Wed 08:58:35 AM 42.4408 -73.7369 352° North 164 189 17,000  Level Boston Center
Wed 08:59:35 AM 42.4825 -73.7492 348° North 164 189 17,000  Level Boston Center
Wed 09:00:35 AM 42.5283 -73.7586 351° North 165 190 17,000  Level Boston Center
Wed 09:01:47 AM 42.5739 -73.7681 351° North 160 184 17,000  Level Boston Center
Wed 09:02:47 AM 42.6300 -73.7861 347° North 165 190 17,000  Level Boston Center
Wed 09:03:47 AM 42.6778 -73.7986 349° North 165 190 17,000  Level Boston Center
Wed 09:04:47 AM 42.7256 -73.8081 352° North 165 190 17,000  Level Boston Center
Wed 09:05:47 AM 42.7714 -73.8203 349° North 165 190 17,000  Level Boston Center
Wed 09:06:47 AM 42.8192 -73.8300 352° North 165 190 17,000  Level Boston Center
Wed 09:07:47 AM 42.8567 -73.8392 350° North 165 190 17,000  Level Boston Center
Wed 09:08:47 AM 42.9106 -73.8489 352° North 160 184 17,000  Level Boston Center
Wed 09:09:47 AM 42.9542 -73.8586 351° North 165 190 17,000  Level Boston Center
Wed 09:10:47 AM 43.0042 -73.8711 350° North 165 190 17,000  Level Boston Center
Wed 09:11:47 AM 43.0478 -73.8806 351° North 165 190 17,000 50 Level Boston Center
Wed 09:12:47 AM 43.0997 -73.8931 350° North 165 190 17,100  Climbing Boston Center
Wed 09:13:47 AM 43.1433 -73.9028 351° North 165 190 17,000 -50 Descending Boston Center
Wed 09:14:47 AM 43.1933 -73.9153 350° North 165 190 17,000 50 Level Boston Center
Wed 09:15:47 AM 43.2389 -73.9250 351° North 165 190 17,100 50 Climbing Boston Center
Wed 09:16:47 AM 43.2908 -73.9375 350° North 170 196 17,100  Level Boston Center
Wed 09:17:59 AM 43.3344 -73.9444 353° North 170 196 17,100  Level Boston Center
Wed 09:18:59 AM 43.4011 -73.9461 359° North 175 201 17,100  Level Boston Center
Wed 09:19:59 AM 43.4514 -73.9444 North 175 201 17,100  Level Boston Center
Wed 09:20:59 AM 43.5014 -73.9428 North 175 201 17,100  Level Boston Center
Wed 09:21:59 AM 43.5514 -73.9383 North 175 201 17,100  Level Boston Center
Wed 09:22:59 AM 43.6014 -73.9394 359° North 175 201 17,100  Level Boston Center
Wed 09:23:59 AM 43.6494 -73.9378 North 175 201 17,100 -50 Level Boston Center
Wed 09:24:59 AM 43.6975 -73.9275 North 175 201 17,000 -50 Descending Boston Center
Wed 09:25:59 AM 43.7392 -73.9286 359° North 175 201 17,000  Level Boston Center
Wed 09:26:59 AM 43.7975 -73.9242 North 175 201 17,000  Level Boston Center
Wed 09:27:59 AM 43.8475 -73.9228 North 175 201 17,000 -100 Level Boston Center
Wed 09:28:59 AM 43.8956 -73.9208 North 175 201 16,800 -500 Descending Boston Center
Wed 09:29:59 AM 43.9539 -73.9194 North 189 217 16,000 -900 Descending Boston Center
Wed 09:30:59 AM 44.0100 -73.9181 North 200 230 15,000 -950 Descending Boston Center
Wed 09:31:59 AM 44.0644 -73.9136 North 193 222 14,100 -900 Descending Boston Center
Wed 09:32:59 AM 44.1144 -73.9147 359° North 188 216 13,200 -900 Descending Boston Center
Wed 09:33:59 AM 44.1644 -73.9075 North 183 211 12,300 -900 Descending Boston Center
Wed 09:34:59 AM 44.2144 -73.9086 359° North 178 205 11,400 -900 Descending Boston Center

Login

Don't have an account? Register now (free) for customized features, flight alerts, and more!